sensor_id;sensor_type;location;lat;lon;timestamp;P1;durP1;ratioP1;P2;durP2;ratioP2
11171;SDS011;5642;50.830;12.082;2023-09-12T00:01:00;2.42;;;2.22;;
11171;SDS011;5642;50.830;12.082;2023-09-12T00:03:36;2.88;;;1.92;;
11171;SDS011;5642;50.830;12.082;2023-09-12T00:06:13;2.00;;;1.90;;
11171;SDS011;5642;50.830;12.082;2023-09-12T00:08:43;2.38;;;2.20;;
11171;SDS011;5642;50.830;12.082;2023-09-12T00:11:10;2.20;;;2.10;;
11171;SDS011;5642;50.830;12.082;2023-09-12T00:13:38;2.60;;;2.40;;
11171;SDS011;5642;50.830;12.082;2023-09-12T00:16:25;3.03;;;2.30;;
11171;SDS011;5642;50.830;12.082;2023-09-12T00:18:56;3.83;;;2.30;;
11171;SDS011;5642;50.830;12.082;2023-09-12T00:21:30;2.40;;;2.20;;
11171;SDS011;5642;50.830;12.082;2023-09-12T00:24:03;2.58;;;2.38;;
11171;SDS011;5642;50.830;12.082;2023-09-12T00:26:35;3.17;;;2.47;;
11171;SDS011;5642;50.830;12.082;2023-09-12T00:29:05;2.78;;;2.58;;
11171;SDS011;5642;50.830;12.082;2023-09-12T00:31:40;3.33;;;2.40;;
11171;SDS011;5642;50.830;12.082;2023-09-12T00:34:11;2.45;;;2.25;;
11171;SDS011;5642;50.830;12.082;2023-09-12T00:36:47;2.78;;;2.58;;
11171;SDS011;5642;50.830;12.082;2023-09-12T00:39:22;2.63;;;2.42;;
11171;SDS011;5642;50.830;12.082;2023-09-12T00:42:09;2.60;;;2.40;;
11171;SDS011;5642;50.830;12.082;2023-09-12T00:44:39;2.60;;;2.40;;
11171;SDS011;5642;50.830;12.082;2023-09-12T00:47:11;2.92;;;2.30;;
11171;SDS011;5642;50.830;12.082;2023-09-12T00:49:43;2.70;;;2.50;;
11171;SDS011;5642;50.830;12.082;2023-09-12T00:52:10;2.90;;;2.58;;
11171;SDS011;5642;50.830;12.082;2023-09-12T00:54:42;3.60;;;2.60;;
11171;SDS011;5642;50.830;12.082;2023-09-12T00:57:09;2.70;;;2.50;;
11171;SDS011;5642;50.830;12.082;2023-09-12T00:59:48;3.00;;;2.75;;
11171;SDS011;5642;50.830;12.082;2023-09-12T01:02:19;2.97;;;2.70;;
11171;SDS011;5642;50.830;12.082;2023-09-12T01:05:05;2.70;;;2.50;;
11171;SDS011;5642;50.830;12.082;2023-09-12T01:07:46;2.70;;;2.50;;
11171;SDS011;5642;50.830;12.082;2023-09-12T01:10:21;3.53;;;2.65;;
11171;SDS011;5642;50.830;12.082;2023-09-12T01:12:56;2.53;;;2.33;;
11171;SDS011;5642;50.830;12.082;2023-09-12T01:15:41;2.80;;;2.40;;
11171;SDS011;5642;50.830;12.082;2023-09-12T01:18:08;2.50;;;2.30;;
11171;SDS011;5642;50.830;12.082;2023-09-12T01:20:41;2.58;;;2.38;;
11171;SDS011;5642;50.830;12.082;2023-09-12T01:23:33;2.53;;;2.28;;
11171;SDS011;5642;50.830;12.082;2023-09-12T01:29:13;4.18;;;3.00;;
11171;SDS011;5642;50.830;12.082;2023-09-12T01:31:46;2.53;;;2.30;;
11171;SDS011;5642;50.830;12.082;2023-09-12T01:34:19;2.75;;;2.55;;
11171;SDS011;5642;50.830;12.082;2023-09-12T01:36:54;2.50;;;2.30;;
11171;SDS011;5642;50.830;12.082;2023-09-12T01:39:30;2.92;;;2.60;;
11171;SDS011;5642;50.830;12.082;2023-09-12T01:42:03;3.17;;;2.90;;
11171;SDS011;5642;50.830;12.082;2023-09-12T01:44:54;3.28;;;2.97;;
11171;SDS011;5642;50.830;12.082;2023-09-12T01:47:24;3.33;;;3.03;;
11171;SDS011;5642;50.830;12.082;2023-09-12T01:49:58;4.30;;;3.20;;
11171;SDS011;5642;50.830;12.082;2023-09-12T01:52:31;3.10;;;2.80;;
11171;SDS011;5642;50.830;12.082;2023-09-12T01:55:02;2.88;;;2.67;;
11171;SDS011;5642;50.830;12.082;2023-09-12T01:57:35;3.42;;;2.88;;
11171;SDS011;5642;50.830;12.082;2023-09-12T02:00:09;2.85;;;2.65;;
11171;SDS011;5642;50.830;12.082;2023-09-12T02:02:42;2.95;;;2.65;;
11171;SDS011;5642;50.830;12.082;2023-09-12T02:05:17;2.88;;;2.50;;
11171;SDS011;5642;50.830;12.082;2023-09-12T02:07:57;3.38;;;2.50;;
11171;SDS011;5642;50.830;12.082;2023-09-12T02:10:43;6.82;;;2.97;;
11171;SDS011;5642;50.830;12.082;2023-09-12T02:13:17;2.50;;;2.28;;
11171;SDS011;5642;50.830;12.082;2023-09-12T02:15:43;2.80;;;2.60;;
11171;SDS011;5642;50.830;12.082;2023-09-12T02:18:10;3.03;;;2.83;;
11171;SDS011;5642;50.830;12.082;2023-09-12T02:20:39;2.58;;;2.38;;
11171;SDS011;5642;50.830;12.082;2023-09-12T02:23:10;3.47;;;2.45;;
11171;SDS011;5642;50.830;12.082;2023-09-12T02:25:42;2.97;;;2.78;;
11171;SDS011;5642;50.830;12.082;2023-09-12T02:28:13;3.08;;;2.80;;
11171;SDS011;5642;50.830;12.082;2023-09-12T02:30:47;2.60;;;2.40;;
11171;SDS011;5642;50.830;12.082;2023-09-12T02:33:23;3.35;;;2.75;;
11171;SDS011;5642;50.830;12.082;2023-09-12T02:35:56;2.97;;;2.78;;
11171;SDS011;5642;50.830;12.082;2023-09-12T02:38:28;2.78;;;2.58;;
11171;SDS011;5642;50.830;12.082;2023-09-12T02:40:59;3.00;;;2.80;;
11171;SDS011;5642;50.830;12.082;2023-09-12T02:43:28;3.22;;;2.70;;
11171;SDS011;5642;50.830;12.082;2023-09-12T02:46:03;3.40;;;3.10;;
11171;SDS011;5642;50.830;12.082;2023-09-12T02:48:34;2.50;;;2.30;;
11171;SDS011;5642;50.830;12.082;2023-09-12T02:51:06;3.40;;;3.10;;
11171;SDS011;5642;50.830;12.082;2023-09-12T02:53:40;2.63;;;2.42;;
11171;SDS011;5642;50.830;12.082;2023-09-12T02:56:12;3.35;;;2.80;;
11171;SDS011;5642;50.830;12.082;2023-09-12T02:58:47;2.83;;;2.63;;
11171;SDS011;5642;50.830;12.082;2023-09-12T03:01:15;3.05;;;2.80;;
11171;SDS011;5642;50.830;12.082;2023-09-12T03:03:55;3.05;;;2.75;;
11171;SDS011;5642;50.830;12.082;2023-09-12T03:06:39;3.67;;;3.08;;
11171;SDS011;5642;50.830;12.082;2023-09-12T03:09:06;3.30;;;3.00;;
11171;SDS011;5642;50.830;12.082;2023-09-12T03:11:36;3.10;;;2.90;;
11171;SDS011;5642;50.830;12.082;2023-09-12T03:14:08;2.75;;;2.55;;
11171;SDS011;5642;50.830;12.082;2023-09-12T03:16:39;3.15;;;2.85;;
11171;SDS011;5642;50.830;12.082;2023-09-12T03:19:29;2.78;;;2.58;;
11171;SDS011;5642;50.830;12.082;2023-09-12T03:22:01;3.13;;;2.83;;
11171;SDS011;5642;50.830;12.082;2023-09-12T03:24:32;3.15;;;2.90;;
11171;SDS011;5642;50.830;12.082;2023-09-12T03:26:58;5.18;;;3.00;;
11171;SDS011;5642;50.830;12.082;2023-09-12T03:29:27;3.25;;;2.95;;
11171;SDS011;5642;50.830;12.082;2023-09-12T03:32:09;3.90;;;3.10;;
11171;SDS011;5642;50.830;12.082;2023-09-12T03:34:40;2.95;;;2.75;;
11171;SDS011;5642;50.830;12.082;2023-09-12T03:37:24;2.90;;;2.70;;
11171;SDS011;5642;50.830;12.082;2023-09-12T03:40:15;3.22;;;2.95;;
11171;SDS011;5642;50.830;12.082;2023-09-12T03:42:42;3.00;;;2.80;;
11171;SDS011;5642;50.830;12.082;2023-09-12T03:45:13;3.40;;;3.10;;
11171;SDS011;5642;50.830;12.082;2023-09-12T03:47:50;3.33;;;3.00;;
11171;SDS011;5642;50.830;12.082;2023-09-12T03:50:17;4.60;;;3.00;;
11171;SDS011;5642;50.830;12.082;2023-09-12T03:52:43;3.30;;;3.10;;
11171;SDS011;5642;50.830;12.082;2023-09-12T03:55:13;3.13;;;2.85;;
11171;SDS011;5642;50.830;12.082;2023-09-12T03:57:52;3.28;;;3.00;;
11171;SDS011;5642;50.830;12.082;2023-09-12T04:00:18;3.22;;;2.92;;
11171;SDS011;5642;50.830;12.082;2023-09-12T04:02:51;3.00;;;2.70;;
11171;SDS011;5642;50.830;12.082;2023-09-12T04:05:24;3.40;;;3.10;;
11171;SDS011;5642;50.830;12.082;2023-09-12T04:07:55;3.15;;;2.90;;
11171;SDS011;5642;50.830;12.082;2023-09-12T04:10:28;2.97;;;2.70;;
11171;SDS011;5642;50.830;12.082;2023-09-12T04:12:54;3.20;;;2.90;;
11171;SDS011;5642;50.830;12.082;2023-09-12T04:15:20;2.83;;;2.63;;
11171;SDS011;5642;50.830;12.082;2023-09-12T04:17:51;3.22;;;3.03;;
11171;SDS011;5642;50.830;12.082;2023-09-12T04:20:23;3.53;;;3.03;;
11171;SDS011;5642;50.830;12.082;2023-09-12T04:22:49;3.38;;;2.72;;
11171;SDS011;5642;50.830;12.082;2023-09-12T04:25:35;3.10;;;2.83;;
11171;SDS011;5642;50.830;12.082;2023-09-12T04:28:01;3.38;;;3.08;;
11171;SDS011;5642;50.830;12.082;2023-09-12T04:30:27;3.38;;;3.08;;
11171;SDS011;5642;50.830;12.082;2023-09-12T04:32:58;3.05;;;2.85;;
11171;SDS011;5642;50.830;12.082;2023-09-12T04:35:36;3.05;;;2.85;;
11171;SDS011;5642;50.830;12.082;2023-09-12T04:38:07;2.83;;;2.63;;
11171;SDS011;5642;50.830;12.082;2023-09-12T04:40:33;3.08;;;2.85;;
11171;SDS011;5642;50.830;12.082;2023-09-12T04:43:15;3.10;;;2.80;;
11171;SDS011;5642;50.830;12.082;2023-09-12T04:46:01;3.58;;;3.28;;
11171;SDS011;5642;50.830;12.082;2023-09-12T04:48:29;3.38;;;3.08;;
11171;SDS011;5642;50.830;12.082;2023-09-12T04:51:00;3.60;;;3.30;;
11171;SDS011;5642;50.830;12.082;2023-09-12T04:53:26;3.53;;;3.22;;
11171;SDS011;5642;50.830;12.082;2023-09-12T04:55:53;3.40;;;3.10;;
11171;SDS011;5642;50.830;12.082;2023-09-12T04:58:20;3.75;;;3.45;;
11171;SDS011;5642;50.830;12.082;2023-09-12T05:00:46;3.95;;;3.55;;
11171;SDS011;5642;50.830;12.082;2023-09-12T05:03:13;3.35;;;3.05;;
11171;SDS011;5642;50.830;12.082;2023-09-12T05:05:50;4.55;;;3.25;;
11171;SDS011;5642;50.830;12.082;2023-09-12T05:08:19;3.40;;;3.10;;
11171;SDS011;5642;50.830;12.082;2023-09-12T05:10:45;3.55;;;3.20;;
11171;SDS011;5642;50.830;12.082;2023-09-12T05:13:11;4.07;;;3.22;;
11171;SDS011;5642;50.830;12.082;2023-09-12T05:15:38;3.65;;;3.35;;
11171;SDS011;5642;50.830;12.082;2023-09-12T05:18:06;3.53;;;3.22;;
11171;SDS011;5642;50.830;12.082;2023-09-12T05:20:33;4.55;;;3.10;;
11171;SDS011;5642;50.830;12.082;2023-09-12T05:23:18;3.00;;;2.80;;
11171;SDS011;5642;50.830;12.082;2023-09-12T05:25:46;3.20;;;2.88;;
11171;SDS011;5642;50.830;12.082;2023-09-12T05:28:13;3.47;;;3.17;;
11171;SDS011;5642;50.830;12.082;2023-09-12T05:30:43;3.85;;;3.55;;
11171;SDS011;5642;50.830;12.082;2023-09-12T05:33:11;3.55;;;3.25;;
11171;SDS011;5642;50.830;12.082;2023-09-12T05:35:39;3.40;;;2.95;;
11171;SDS011;5642;50.830;12.082;2023-09-12T05:38:06;3.40;;;3.10;;
11171;SDS011;5642;50.830;12.082;2023-09-12T05:40:37;3.35;;;3.05;;
11171;SDS011;5642;50.830;12.082;2023-09-12T05:43:03;2.95;;;2.75;;
11171;SDS011;5642;50.830;12.082;2023-09-12T05:45:33;3.63;;;2.90;;
11171;SDS011;5642;50.830;12.082;2023-09-12T05:48:00;3.15;;;2.95;;
11171;SDS011;5642;50.830;12.082;2023-09-12T05:50:36;3.25;;;2.80;;
11171;SDS011;5642;50.830;12.082;2023-09-12T05:53:13;3.42;;;3.05;;
11171;SDS011;5642;50.830;12.082;2023-09-12T05:55:43;3.42;;;2.83;;
11171;SDS011;5642;50.830;12.082;2023-09-12T05:58:10;3.13;;;2.83;;
11171;SDS011;5642;50.830;12.082;2023-09-12T06:00:37;3.50;;;3.20;;
11171;SDS011;5642;50.830;12.082;2023-09-12T06:03:05;3.25;;;3.00;;
11171;SDS011;5642;50.830;12.082;2023-09-12T06:05:34;2.95;;;2.75;;
11171;SDS011;5642;50.830;12.082;2023-09-12T06:08:00;2.88;;;2.67;;
11171;SDS011;5642;50.830;12.082;2023-09-12T06:10:26;3.42;;;2.88;;
11171;SDS011;5642;50.830;12.082;2023-09-12T06:12:54;3.15;;;2.85;;
11171;SDS011;5642;50.830;12.082;2023-09-12T06:15:21;2.90;;;2.70;;
11171;SDS011;5642;50.830;12.082;2023-09-12T06:17:48;2.83;;;2.63;;
11171;SDS011;5642;50.830;12.082;2023-09-12T06:20:14;3.10;;;2.90;;
11171;SDS011;5642;50.830;12.082;2023-09-12T06:22:43;3.53;;;3.20;;
11171;SDS011;5642;50.830;12.082;2023-09-12T06:25:09;2.78;;;2.58;;
11171;SDS011;5642;50.830;12.082;2023-09-12T06:27:40;4.00;;;2.60;;
11171;SDS011;5642;50.830;12.082;2023-09-12T06:30:10;3.00;;;2.80;;
11171;SDS011;5642;50.830;12.082;2023-09-12T06:32:38;3.28;;;2.63;;
11171;SDS011;5642;50.830;12.082;2023-09-12T06:35:08;3.10;;;2.80;;
11171;SDS011;5642;50.830;12.082;2023-09-12T06:37:38;3.17;;;2.65;;
11171;SDS011;5642;50.830;12.082;2023-09-12T06:40:06;2.58;;;2.38;;
11171;SDS011;5642;50.830;12.082;2023-09-12T06:42:34;2.65;;;2.45;;
11171;SDS011;5642;50.830;12.082;2023-09-12T06:45:02;3.35;;;2.45;;
11171;SDS011;5642;50.830;12.082;2023-09-12T06:47:32;2.67;;;2.47;;
11171;SDS011;5642;50.830;12.082;2023-09-12T06:50:08;2.58;;;2.38;;
11171;SDS011;5642;50.830;12.082;2023-09-12T06:52:38;2.67;;;2.47;;
11171;SDS011;5642;50.830;12.082;2023-09-12T06:55:10;2.80;;;2.60;;
11171;SDS011;5642;50.830;12.082;2023-09-12T06:57:38;2.90;;;2.40;;
11171;SDS011;5642;50.830;12.082;2023-09-12T07:00:05;2.63;;;2.42;;
11171;SDS011;5642;50.830;12.082;2023-09-12T07:02:33;3.20;;;2.40;;
11171;SDS011;5642;50.830;12.082;2023-09-12T07:04:59;2.50;;;2.40;;
11171;SDS011;5642;50.830;12.082;2023-09-12T07:07:25;2.70;;;2.50;;
11171;SDS011;5642;50.830;12.082;2023-09-12T07:09:54;2.55;;;2.22;;
11171;SDS011;5642;50.830;12.082;2023-09-12T07:12:20;3.88;;;2.13;;
11171;SDS011;5642;50.830;12.082;2023-09-12T07:14:47;3.72;;;2.40;;
11171;SDS011;5642;50.830;12.082;2023-09-12T07:17:16;3.35;;;2.60;;
11171;SDS011;5642;50.830;12.082;2023-09-12T07:19:44;3.92;;;2.30;;
11171;SDS011;5642;50.830;12.082;2023-09-12T07:22:10;2.30;;;2.10;;
11171;SDS011;5642;50.830;12.082;2023-09-12T07:24:39;1.90;;;1.80;;
11171;SDS011;5642;50.830;12.082;2023-09-12T07:27:21;2.10;;;2.00;;
11171;SDS011;5642;50.830;12.082;2023-09-12T07:29:55;2.33;;;2.13;;
11171;SDS011;5642;50.830;12.082;2023-09-12T07:32:22;1.92;;;1.83;;
11171;SDS011;5642;50.830;12.082;2023-09-12T07:34:50;2.15;;;2.05;;
11171;SDS011;5642;50.830;12.082;2023-09-12T07:37:16;2.10;;;2.00;;
11171;SDS011;5642;50.830;12.082;2023-09-12T07:39:43;2.00;;;1.90;;
11171;SDS011;5642;50.830;12.082;2023-09-12T07:42:10;2.05;;;1.95;;
11171;SDS011;5642;50.830;12.082;2023-09-12T07:44:38;2.42;;;2.22;;
11171;SDS011;5642;50.830;12.082;2023-09-12T07:47:07;1.90;;;1.80;;
11171;SDS011;5642;50.830;12.082;2023-09-12T07:49:33;2.30;;;2.10;;
11171;SDS011;5642;50.830;12.082;2023-09-12T07:52:03;2.00;;;1.90;;
11171;SDS011;5642;50.830;12.082;2023-09-12T07:54:30;2.85;;;2.10;;
11171;SDS011;5642;50.830;12.082;2023-09-12T07:56:56;2.10;;;1.90;;
11171;SDS011;5642;50.830;12.082;2023-09-12T07:59:25;2.70;;;1.85;;
11171;SDS011;5642;50.830;12.082;2023-09-12T08:01:52;2.00;;;1.80;;
11171;SDS011;5642;50.830;12.082;2023-09-12T08:04:20;1.90;;;1.80;;
11171;SDS011;5642;50.830;12.082;2023-09-12T08:06:52;2.08;;;1.98;;
11171;SDS011;5642;50.830;12.082;2023-09-12T08:09:34;1.92;;;1.67;;
11171;SDS011;5642;50.830;12.082;2023-09-12T08:12:35;2.05;;;1.95;;
11171;SDS011;5642;50.830;12.082;2023-09-12T08:15:06;2.20;;;2.00;;
11171;SDS011;5642;50.830;12.082;2023-09-12T08:17:34;1.83;;;1.73;;
11171;SDS011;5642;50.830;12.082;2023-09-12T08:20:04;2.15;;;2.05;;
11171;SDS011;5642;50.830;12.082;2023-09-12T08:22:34;1.73;;;1.63;;
11171;SDS011;5642;50.830;12.082;2023-09-12T08:25:01;1.80;;;1.70;;
11171;SDS011;5642;50.830;12.082;2023-09-12T08:27:27;2.17;;;2.08;;
11171;SDS011;5642;50.830;12.082;2023-09-12T08:29:55;1.90;;;1.80;;
11171;SDS011;5642;50.830;12.082;2023-09-12T08:32:22;2.42;;;2.00;;
11171;SDS011;5642;50.830;12.082;2023-09-12T08:34:48;1.88;;;1.77;;
11171;SDS011;5642;50.830;12.082;2023-09-12T08:37:17;1.90;;;1.80;;
11171;SDS011;5642;50.830;12.082;2023-09-12T08:39:45;2.17;;;1.75;;
11171;SDS011;5642;50.830;12.082;2023-09-12T08:42:23;2.00;;;1.88;;
11171;SDS011;5642;50.830;12.082;2023-09-12T08:44:52;1.80;;;1.70;;
11171;SDS011;5642;50.830;12.082;2023-09-12T08:47:19;1.95;;;1.85;;
11171;SDS011;5642;50.830;12.082;2023-09-12T08:49:48;1.83;;;1.73;;
11171;SDS011;5642;50.830;12.082;2023-09-12T08:52:14;2.00;;;1.90;;
11171;SDS011;5642;50.830;12.082;2023-09-12T08:54:41;2.13;;;2.03;;
11171;SDS011;5642;50.830;12.082;2023-09-12T08:57:08;2.03;;;1.92;;
11171;SDS011;5642;50.830;12.082;2023-09-12T08:59:39;1.85;;;1.75;;
11171;SDS011;5642;50.830;12.082;2023-09-12T09:02:10;1.83;;;1.73;;
11171;SDS011;5642;50.830;12.082;2023-09-12T09:04:41;2.00;;;1.90;;
11171;SDS011;5642;50.830;12.082;2023-09-12T09:07:12;1.88;;;1.77;;
11171;SDS011;5642;50.830;12.082;2023-09-12T09:09:41;1.95;;;1.85;;
11171;SDS011;5642;50.830;12.082;2023-09-12T09:12:08;1.83;;;1.73;;
11171;SDS011;5642;50.830;12.082;2023-09-12T09:14:34;1.75;;;1.65;;
11171;SDS011;5642;50.830;12.082;2023-09-12T09:17:03;2.53;;;1.83;;
11171;SDS011;5642;50.830;12.082;2023-09-12T09:19:40;1.95;;;1.70;;
11171;SDS011;5642;50.830;12.082;2023-09-12T09:22:11;1.90;;;1.80;;
11171;SDS011;5642;50.830;12.082;2023-09-12T09:24:38;1.77;;;1.67;;
11171;SDS011;5642;50.830;12.082;2023-09-12T09:27:08;1.95;;;1.85;;
11171;SDS011;5642;50.830;12.082;2023-09-12T09:29:47;2.13;;;2.03;;
11171;SDS011;5642;50.830;12.082;2023-09-12T09:32:18;2.28;;;2.08;;
11171;SDS011;5642;50.830;12.082;2023-09-12T09:34:52;2.00;;;1.90;;
11171;SDS011;5642;50.830;12.082;2023-09-12T09:37:19;1.90;;;1.75;;
11171;SDS011;5642;50.830;12.082;2023-09-12T09:39:46;2.42;;;2.22;;
11171;SDS011;5642;50.830;12.082;2023-09-12T09:42:21;2.83;;;2.63;;
11171;SDS011;5642;50.830;12.082;2023-09-12T09:44:50;2.55;;;2.35;;
11171;SDS011;5642;50.830;12.082;2023-09-12T09:47:17;3.47;;;2.90;;
11171;SDS011;5642;50.830;12.082;2023-09-12T09:49:45;2.70;;;2.50;;
11171;SDS011;5642;50.830;12.082;2023-09-12T09:52:12;3.78;;;2.60;;
11171;SDS011;5642;50.830;12.082;2023-09-12T09:54:42;3.00;;;2.80;;
11171;SDS011;5642;50.830;12.082;2023-09-12T09:57:11;3.55;;;3.00;;
11171;SDS011;5642;50.830;12.082;2023-09-12T09:59:37;3.17;;;2.83;;
11171;SDS011;5642;50.830;12.082;2023-09-12T10:02:05;2.92;;;2.72;;
11171;SDS011;5642;50.830;12.082;2023-09-12T10:04:59;3.50;;;2.65;;
11171;SDS011;5642;50.830;12.082;2023-09-12T10:07:49;2.83;;;2.63;;
11171;SDS011;5642;50.830;12.082;2023-09-12T10:10:37;2.60;;;2.40;;
11171;SDS011;5642;50.830;12.082;2023-09-12T10:13:06;2.78;;;2.58;;
11171;SDS011;5642;50.830;12.082;2023-09-12T10:15:37;2.85;;;2.55;;
11171;SDS011;5642;50.830;12.082;2023-09-12T10:18:08;3.70;;;2.95;;
11171;SDS011;5642;50.830;12.082;2023-09-12T10:20:45;4.80;;;3.17;;
11171;SDS011;5642;50.830;12.082;2023-09-12T10:23:23;2.30;;;2.10;;
11171;SDS011;5642;50.830;12.082;2023-09-12T10:26:05;2.22;;;2.03;;
11171;SDS011;5642;50.830;12.082;2023-09-12T10:28:31;2.92;;;2.30;;
11171;SDS011;5642;50.830;12.082;2023-09-12T10:30:58;3.00;;;2.55;;
11171;SDS011;5642;50.830;12.082;2023-09-12T10:33:31;3.20;;;2.90;;
11171;SDS011;5642;50.830;12.082;2023-09-12T10:41:46;3.90;;;2.92;;
11171;SDS011;5642;50.830;12.082;2023-09-12T10:44:18;5.55;;;3.22;;
11171;SDS011;5642;50.830;12.082;2023-09-12T10:46:46;6.25;;;2.88;;
11171;SDS011;5642;50.830;12.082;2023-09-12T10:49:17;3.78;;;3.22;;
11171;SDS011;5642;50.830;12.082;2023-09-12T10:51:46;4.45;;;3.17;;
11171;SDS011;5642;50.830;12.082;2023-09-12T10:54:24;3.80;;;3.15;;
11171;SDS011;5642;50.830;12.082;2023-09-12T10:57:05;3.70;;;3.05;;
11171;SDS011;5642;50.830;12.082;2023-09-12T10:59:36;4.20;;;2.92;;
11171;SDS011;5642;50.830;12.082;2023-09-12T11:02:27;4.43;;;2.70;;
11171;SDS011;5642;50.830;12.082;2023-09-12T11:04:59;4.72;;;2.45;;
11171;SDS011;5642;50.830;12.082;2023-09-12T11:10:24;4.13;;;3.00;;
11171;SDS011;5642;50.830;12.082;2023-09-12T11:12:52;5.65;;;2.83;;
11171;SDS011;5642;50.830;12.082;2023-09-12T11:15:22;3.45;;;2.65;;
11171;SDS011;5642;50.830;12.082;2023-09-12T11:18:01;2.55;;;2.35;;
11171;SDS011;5642;50.830;12.082;2023-09-12T11:20:50;5.28;;;2.78;;
11171;SDS011;5642;50.830;12.082;2023-09-12T11:23:29;5.07;;;3.17;;
11171;SDS011;5642;50.830;12.082;2023-09-12T11:26:04;3.50;;;2.95;;
11171;SDS011;5642;50.830;12.082;2023-09-12T11:28:41;3.88;;;2.70;;
11171;SDS011;5642;50.830;12.082;2023-09-12T11:31:11;2.80;;;2.50;;
11171;SDS011;5642;50.830;12.082;2023-09-12T11:33:40;5.18;;;3.13;;
11171;SDS011;5642;50.830;12.082;2023-09-12T11:36:07;4.60;;;3.15;;
11171;SDS011;5642;50.830;12.082;2023-09-12T11:38:39;2.60;;;2.40;;
11171;SDS011;5642;50.830;12.082;2023-09-12T11:41:05;4.72;;;3.22;;
11171;SDS011;5642;50.830;12.082;2023-09-12T11:43:31;4.45;;;3.17;;
11171;SDS011;5642;50.830;12.082;2023-09-12T11:46:00;6.72;;;3.20;;
11171;SDS011;5642;50.830;12.082;2023-09-12T11:48:28;3.03;;;2.78;;
11171;SDS011;5642;50.830;12.082;2023-09-12T11:50:58;3.42;;;3.03;;
11171;SDS011;5642;50.830;12.082;2023-09-12T11:53:27;7.20;;;3.30;;
11171;SDS011;5642;50.830;12.082;2023-09-12T11:55:58;3.97;;;3.03;;
11171;SDS011;5642;50.830;12.082;2023-09-12T11:58:25;3.40;;;3.10;;
11171;SDS011;5642;50.830;12.082;2023-09-12T12:00:57;4.63;;;3.30;;
11171;SDS011;5642;50.830;12.082;2023-09-12T12:03:45;4.88;;;2.90;;
11171;SDS011;5642;50.830;12.082;2023-09-12T12:06:18;4.13;;;2.80;;
11171;SDS011;5642;50.830;12.082;2023-09-12T12:08:45;3.28;;;2.63;;
11171;SDS011;5642;50.830;12.082;2023-09-12T12:11:13;3.10;;;2.80;;
11171;SDS011;5642;50.830;12.082;2023-09-12T12:13:40;3.05;;;2.45;;
11171;SDS011;5642;50.830;12.082;2023-09-12T12:16:15;3.65;;;2.70;;
11171;SDS011;5642;50.830;12.082;2023-09-12T12:18:43;4.28;;;2.88;;
11171;SDS011;5642;50.830;12.082;2023-09-12T12:21:28;3.28;;;2.80;;
11171;SDS011;5642;50.830;12.082;2023-09-12T12:24:01;3.35;;;2.70;;
11171;SDS011;5642;50.830;12.082;2023-09-12T12:26:33;4.18;;;2.30;;
11171;SDS011;5642;50.830;12.082;2023-09-12T12:29:00;3.42;;;2.35;;
11171;SDS011;5642;50.830;12.082;2023-09-12T12:31:27;3.08;;;2.10;;
11171;SDS011;5642;50.830;12.082;2023-09-12T12:34:12;3.40;;;2.08;;
11171;SDS011;5642;50.830;12.082;2023-09-12T12:36:42;3.85;;;2.50;;
11171;SDS011;5642;50.830;12.082;2023-09-12T12:39:27;3.40;;;2.13;;
11171;SDS011;5642;50.830;12.082;2023-09-12T12:42:00;3.30;;;2.60;;
11171;SDS011;5642;50.830;12.082;2023-09-12T12:44:47;2.88;;;2.53;;
11171;SDS011;5642;50.830;12.082;2023-09-12T12:47:19;4.78;;;2.50;;
11171;SDS011;5642;50.830;12.082;2023-09-12T12:49:53;2.83;;;2.40;;
11171;SDS011;5642;50.830;12.082;2023-09-12T12:52:24;3.60;;;2.40;;
11171;SDS011;5642;50.830;12.082;2023-09-12T12:54:51;2.65;;;2.17;;
11171;SDS011;5642;50.830;12.082;2023-09-12T12:57:19;3.53;;;2.25;;
11171;SDS011;5642;50.830;12.082;2023-09-12T12:59:48;2.63;;;2.42;;
11171;SDS011;5642;50.830;12.082;2023-09-12T13:02:45;2.85;;;2.55;;
11171;SDS011;5642;50.830;12.082;2023-09-12T13:05:20;2.78;;;2.58;;
11171;SDS011;5642;50.830;12.082;2023-09-12T13:07:53;3.83;;;2.38;;
11171;SDS011;5642;50.830;12.082;2023-09-12T13:10:25;2.65;;;2.45;;
11171;SDS011;5642;50.830;12.082;2023-09-12T13:12:52;3.08;;;2.78;;
11171;SDS011;5642;50.830;12.082;2023-09-12T13:15:18;3.55;;;2.50;;
11171;SDS011;5642;50.830;12.082;2023-09-12T13:17:44;2.80;;;2.60;;
11171;SDS011;5642;50.830;12.082;2023-09-12T13:20:11;2.47;;;2.28;;
11171;SDS011;5642;50.830;12.082;2023-09-12T13:22:37;7.70;;;2.85;;
11171;SDS011;5642;50.830;12.082;2023-09-12T13:25:05;4.22;;;2.42;;
11171;SDS011;5642;50.830;12.082;2023-09-12T13:27:32;3.65;;;2.50;;
11171;SDS011;5642;50.830;12.082;2023-09-12T13:30:00;2.83;;;2.58;;
11171;SDS011;5642;50.830;12.082;2023-09-12T13:32:27;2.88;;;2.30;;
11171;SDS011;5642;50.830;12.082;2023-09-12T13:34:54;2.85;;;2.65;;
11171;SDS011;5642;50.830;12.082;2023-09-12T13:37:24;5.30;;;3.22;;
11171;SDS011;5642;50.830;12.082;2023-09-12T13:39:54;5.47;;;3.10;;
11171;SDS011;5642;50.830;12.082;2023-09-12T13:42:20;4.32;;;2.88;;
11171;SDS011;5642;50.830;12.082;2023-09-12T13:44:47;3.20;;;2.90;;
11171;SDS011;5642;50.830;12.082;2023-09-12T13:47:19;3.13;;;2.83;;
11171;SDS011;5642;50.830;12.082;2023-09-12T13:49:50;3.42;;;2.63;;
11171;SDS011;5642;50.830;12.082;2023-09-12T13:52:28;9.93;;;3.00;;
11171;SDS011;5642;50.830;12.082;2023-09-12T13:54:54;2.63;;;2.42;;
11171;SDS011;5642;50.830;12.082;2023-09-12T13:57:31;3.22;;;2.65;;
11171;SDS011;5642;50.830;12.082;2023-09-12T13:59:57;3.58;;;2.90;;
11171;SDS011;5642;50.830;12.082;2023-09-12T14:02:39;2.95;;;2.70;;
11171;SDS011;5642;50.830;12.082;2023-09-12T14:05:06;3.20;;;2.80;;
11171;SDS011;5642;50.830;12.082;2023-09-12T14:07:39;3.85;;;2.63;;
11171;SDS011;5642;50.830;12.082;2023-09-12T14:10:06;3.13;;;2.60;;
11171;SDS011;5642;50.830;12.082;2023-09-12T14:12:33;3.17;;;2.67;;
11171;SDS011;5642;50.830;12.082;2023-09-12T14:14:59;3.33;;;2.40;;
11171;SDS011;5642;50.830;12.082;2023-09-12T14:17:27;3.92;;;2.60;;
11171;SDS011;5642;50.830;12.082;2023-09-12T14:19:54;3.50;;;2.63;;
11171;SDS011;5642;50.830;12.082;2023-09-12T14:22:26;4.32;;;3.08;;
11171;SDS011;5642;50.830;12.082;2023-09-12T14:24:53;2.70;;;2.50;;
11171;SDS011;5642;50.830;12.082;2023-09-12T14:27:22;2.83;;;2.63;;
11171;SDS011;5642;50.830;12.082;2023-09-12T14:29:50;3.72;;;2.80;;
11171;SDS011;5642;50.830;12.082;2023-09-12T14:32:17;2.60;;;2.40;;
11171;SDS011;5642;50.830;12.082;2023-09-12T14:35:02;3.28;;;2.30;;
11171;SDS011;5642;50.830;12.082;2023-09-12T14:37:34;3.00;;;2.80;;
11171;SDS011;5642;50.830;12.082;2023-09-12T14:40:08;4.65;;;2.72;;
11171;SDS011;5642;50.830;12.082;2023-09-12T14:42:38;2.40;;;2.20;;
11171;SDS011;5642;50.830;12.082;2023-09-12T14:45:24;2.55;;;2.35;;
11171;SDS011;5642;50.830;12.082;2023-09-12T14:47:52;4.53;;;2.80;;
11171;SDS011;5642;50.830;12.082;2023-09-12T14:50:21;3.00;;;2.50;;
11171;SDS011;5642;50.830;12.082;2023-09-12T14:52:51;3.13;;;2.35;;
11171;SDS011;5642;50.830;12.082;2023-09-12T14:55:18;2.72;;;2.53;;
11171;SDS011;5642;50.830;12.082;2023-09-12T14:57:46;2.53;;;2.33;;
11171;SDS011;5642;50.830;12.082;2023-09-12T15:00:12;2.90;;;2.70;;
11171;SDS011;5642;50.830;12.082;2023-09-12T15:02:39;3.28;;;2.40;;
11171;SDS011;5642;50.830;12.082;2023-09-12T15:05:16;3.65;;;2.35;;
11171;SDS011;5642;50.830;12.082;2023-09-12T15:08:02;2.60;;;2.00;;
11171;SDS011;5642;50.830;12.082;2023-09-12T15:10:40;3.17;;;2.40;;
11171;SDS011;5642;50.830;12.082;2023-09-12T15:13:10;2.88;;;2.35;;
11171;SDS011;5642;50.830;12.082;2023-09-12T15:15:37;3.28;;;2.15;;
11171;SDS011;5642;50.830;12.082;2023-09-12T15:18:03;2.40;;;2.20;;
11171;SDS011;5642;50.830;12.082;2023-09-12T15:20:32;2.85;;;2.22;;
11171;SDS011;5642;50.830;12.082;2023-09-12T15:23:00;2.53;;;2.33;;
11171;SDS011;5642;50.830;12.082;2023-09-12T15:25:44;3.47;;;2.30;;